Amunt
Inicio > meteoXarxa
Fes-te'n soci

METEOXARXA

Ares del Maestrat
Ubicació
Comarca l′Alt Maestrat
Altitud (msnm) 976
Posició geogràfica 40° 30' 0.63" N, 00° 5' 57.21" W
Model Davis Vantage Pro2
Presa de dades
Font de les dades Weatherlink
Estadístiques. Resum
Data Temperatura (ºC) Humitat (%) Pressió (hPa) Vent (km/h) Precipit. (mm)
Mínima Mitjana Màxima Mínima Mitjana Màxima Mínima Mitjana Màxima Predom. Mitjana Ràfega màxima Total Dies de pluja
Mínima Mitjana Màxima Mínima Mitjana Màxima
Últimes dades diàries
19-01-2017 -6,7     -4,4     -2,1 79,0 87,5 96,0 1.022,0 1.023,9 1.025,8 26,0 0,0  
18-01-2017 -8,0     -4,0     0,1 41,0 63,5 86,0 1.019,4 1.022,5 1.025,6 31,0 0,0  
17-01-2017 -6,3     -1,4     3,4 31,0 57,0 83,0 1.010,7 1.015,2 1.019,7 77,0 0,0  
16-01-2017 0,7     3,8     6,8 69,0 82,5 96,0 1.013,4 1.018,7 1.024,0 84,0 3,0  
15-01-2017 -1,6     1,4     4,3 61,0 75,5 90,0 1.020,3 1.023,2 1.026,1 69,0 0,0  
14-01-2017 -2,0     0,3     2,6 50,0 67,0 84,0 1.020,3 1.023,2 1.026,2 79,0 0,0  
13-01-2017 -1,1     3,8     8,8 54,0 73,0 92,0 1.011,2 1.016,5 1.021,7 92,0 0,2  
12-01-2017 6,4     11,3     16,3 47,0 67,0 87,0 1.016,0 1.021,1 1.026,2 40,0 0,0  
11-01-2017 2,3     6,2     10,2 75,0 82,0 89,0 1.012,2 1.019,2 1.026,3 68,0 0,0  
10-01-2017 1,3     3,5     5,8 66,0 77,0 88,0 1.010,8 1.016,3 1.021,8 80,0 0,2  
09-01-2017 0,7     5,7     10,6 50,0 68,5 87,0 1.021,5 1.024,8 1.028,0 29,0 0,0  
08-01-2017 2,4     6,4     10,4 26,0 48,0 70,0 1.025,4 1.027,5 1.029,6 27,0 0,0  
07-01-2017 2,9     7,3     11,7 22,0 37,0 52,0 1.028,3 1.029,4 1.030,5 23,0 0,0  
06-01-2017 2,2     5,7     9,2 26,0 57,5 89,0 1.025,4 1.027,8 1.030,1 18,0 0,0  
05-01-2017 3,4     7,5     11,5 30,0 51,0 72,0 1.019,3 1.022,5 1.025,7 48,0 0,0  
04-01-2017 5,3     8,6     11,8 34,0 57,0 80,0 1.021,5 1.022,9 1.024,2 48,0 0,0  
03-01-2017 6,8     9,3     11,9 24,0 47,0 70,0 1.021,8 1.023,0 1.024,2 40,0 0,0  
02-01-2017 1,7     5,7     9,6 32,0 60,5 89,0 1.021,7 1.022,8 1.023,8 13,0 0,0  
01-01-2017 2,2     5,5     8,9 55,0 76,0 97,0 1.022,5 1.026,8 1.031,2 26,0 0,0  
31-12-2016 1,3     4,8     8,3 68,0 82,5 97,0 1.031,2 1.032,7 1.034,2 24,0 0,0  
30-12-2016 2,4     5,9     9,4 22,0 58,5 95,0 1.031,8 1.032,8 1.033,9 16,0 0,0  
29-12-2016 7,7     13,1     18,5 7,0 17,5 28,0 1.031,1 1.033,2 1.035,3 16,0 0,0  
28-12-2016 5,8     9,9     14,0 15,0 35,0 55,0 1.034,6 1.036,0 1.037,3 16,0 0,0  
27-12-2016 7,7     10,8     13,8 24,0 41,0 58,0 1.029,6 1.032,2 1.034,7 10,0 0,0  
26-12-2016 10,1     14,5     18,9 13,0 25,5 38,0 1.028,0 1.029,8 1.031,7 16,0 0,0  
25-12-2016 4,1     10,8     17,6 20,0 58,0 96,0 1.031,7 1.034,5 1.037,4 27,0 0,0  
24-12-2016 5,3     7,5     9,7 70,0 80,5 91,0 1.036,0 1.037,1 1.038,2 35,0 0,0  
23-12-2016 5,7     8,0     10,3 75,0 85,0 95,0 1.035,1 1.036,2 1.037,3 27,0 0,0  
22-12-2016 2,8     6,5     10,1 64,0 79,5 95,0 1.031,8 1.034,2 1.036,6 23,0 0,0  
21-12-2016 0,5     4,4     8,3 70,0 82,5 95,0 1.022,7 1.027,5 1.032,4 45,0 0,0  
20-12-2016 0,5     3,8     7,1 72,0 86,0 100,0 1.016,4 1.019,7 1.023,0 42,0 0,4  
19-12-2016 -0,3     0,6     1,4 99,0 99,5 100,0 1.015,3 1.020,2 1.025,1 31,0 3,0  
Dades del mes en curs (actualitzades fins l'últim dia disponible)
01/2017 -8,0 0,7 6,8 4,3 -2,1 8,0 16,3 22,0 65,0 97,0 1.010,7 1.022,5 1.031,2   92,0 3,4  
Últimes dades mensuals
12/2016 -0,3 4,4 10,1 7,5 1,4 10,7 18,9 17,5 75,9 99,5 1.015,1 1.029,4 1.037,1 45,0 76,2 9
08/2016 8,4 15,8 19,7 21,0 21,1 26,2 30,0 55,0 64,3 85,0 1.009,8 1.017,8 1.023,9 35,0 10,0 5
07/2016 8,2 16,5 21,8 21,5 22,3 26,4 31,7 46,5 58,7 80,5 1.012,0 1.016,7 1.022,1 48,0 1,6 2
06/2016 6,8 13,1 18,8 17,8 14,4 22,5 27,5 39,0 62,2 79,0 1.002,3 1.015,6 1.025,0 50,0 47,6 10
05/2016 0,1 7,9 14,7 12,2 9,1 16,6 22,1 39,5 69,6 100,0 1.005,9 1.014,8 1.024,0 58,0 30,8 9
04/2016 -0,1 5,1 10,9 9,1 6,3 13,2 18,1 56,5 71,3 99,5 1.007,0 1.014,0 1.020,3 63,0 48,2 12
03/2016 -1,6 2,3 10,0 6,1 3,1 9,9 18,8 50,5 71,7 99,5 1.003,0 1.015,2 1.026,6 71,0 30,2 13
02/2016 -4,5 2,5 9,0 6,3 3,2 10,1 16,6 43,0 66,6 92,0 990,6 1.017,3 1.036,0 82,0 19,4 8
01/2016 -2,4 4,3 9,4 7,6 3,2 11,0 16,6 53,0 69,4 89,0 1.003,4 1.020,7 1.033,0 69,0 5,8 9
Dades de l'any en curs (actualitzades fins l'últim dia disponible)
2017 -8,0 0,7 6,8 4,3 -2,1 8,0 16,3 22,0 65,0 97,0 1.010,7 1.022,5 1.031,2   92,0 3,4  
Últimes dades anuals